sensor_id;sensor_type;location;lat;lon;timestamp;temperature;humidity
41926;DHT22;27615;51.826;5.692;2022-07-06T00:01:50;14.80;74.30
41926;DHT22;27615;51.826;5.692;2022-07-06T00:04:17;14.70;74.50
41926;DHT22;27615;51.826;5.692;2022-07-06T00:06:43;14.70;74.70
41926;DHT22;27615;51.826;5.692;2022-07-06T00:09:08;14.70;74.90
41926;DHT22;27615;51.826;5.692;2022-07-06T00:11:34;14.60;74.90
41926;DHT22;27615;51.826;5.692;2022-07-06T00:13:59;14.60;75.10
41926;DHT22;27615;51.826;5.692;2022-07-06T00:16:25;14.60;75.30
41926;DHT22;27615;51.826;5.692;2022-07-06T00:18:51;14.60;75.60
41926;DHT22;27615;51.826;5.692;2022-07-06T00:21:17;14.50;75.80
41926;DHT22;27615;51.826;5.692;2022-07-06T00:23:43;14.50;75.90
41926;DHT22;27615;51.826;5.692;2022-07-06T00:26:08;14.50;76.00
41926;DHT22;27615;51.826;5.692;2022-07-06T00:28:34;14.40;76.20
41926;DHT22;27615;51.826;5.692;2022-07-06T00:31:00;14.40;76.40
41926;DHT22;27615;51.826;5.692;2022-07-06T00:33:26;14.40;76.50
41926;DHT22;27615;51.826;5.692;2022-07-06T00:35:51;14.40;76.60
41926;DHT22;27615;51.826;5.692;2022-07-06T00:38:17;14.30;76.80
41926;DHT22;27615;51.826;5.692;2022-07-06T00:40:43;14.30;76.90
41926;DHT22;27615;51.826;5.692;2022-07-06T00:43:08;14.30;77.10
41926;DHT22;27615;51.826;5.692;2022-07-06T00:45:34;14.30;77.30
41926;DHT22;27615;51.826;5.692;2022-07-06T00:47:59;14.20;77.40
41926;DHT22;27615;51.826;5.692;2022-07-06T00:50:25;14.20;77.70
41926;DHT22;27615;51.826;5.692;2022-07-06T00:52:55;14.20;78.00
41926;DHT22;27615;51.826;5.692;2022-07-06T00:55:23;14.10;78.40
41926;DHT22;27615;51.826;5.692;2022-07-06T00:57:49;14.00;78.70
41926;DHT22;27615;51.826;5.692;2022-07-06T01:00:18;14.00;79.00
41926;DHT22;27615;51.826;5.692;2022-07-06T01:02:44;13.90;79.40
41926;DHT22;27615;51.826;5.692;2022-07-06T01:05:12;13.90;79.80
41926;DHT22;27615;51.826;5.692;2022-07-06T01:07:39;13.80;80.00
41926;DHT22;27615;51.826;5.692;2022-07-06T01:10:05;13.80;80.40
41926;DHT22;27615;51.826;5.692;2022-07-06T01:12:31;13.70;80.60
41926;DHT22;27615;51.826;5.692;2022-07-06T01:14:59;13.70;80.90
41926;DHT22;27615;51.826;5.692;2022-07-06T01:17:26;13.70;81.10
41926;DHT22;27615;51.826;5.692;2022-07-06T01:19:51;13.60;81.30
41926;DHT22;27615;51.826;5.692;2022-07-06T01:22:17;13.60;81.60
41926;DHT22;27615;51.826;5.692;2022-07-06T01:24:42;13.50;81.80
41926;DHT22;27615;51.826;5.692;2022-07-06T01:27:08;13.50;82.00
41926;DHT22;27615;51.826;5.692;2022-07-06T01:29:34;13.50;82.30
41926;DHT22;27615;51.826;5.692;2022-07-06T01:32:00;13.40;82.50
41926;DHT22;27615;51.826;5.692;2022-07-06T01:34:26;13.40;82.80
41926;DHT22;27615;51.826;5.692;2022-07-06T01:36:52;13.30;83.40
41926;DHT22;27615;51.826;5.692;2022-07-06T01:39:17;13.10;84.10
41926;DHT22;27615;51.826;5.692;2022-07-06T01:41:43;13.00;84.70
41926;DHT22;27615;51.826;5.692;2022-07-06T01:44:09;13.00;85.00
41926;DHT22;27615;51.826;5.692;2022-07-06T01:46:34;13.00;85.20
41926;DHT22;27615;51.826;5.692;2022-07-06T01:49:00;13.00;85.40
41926;DHT22;27615;51.826;5.692;2022-07-06T01:51:25;12.90;85.60
41926;DHT22;27615;51.826;5.692;2022-07-06T01:53:51;12.90;85.70
41926;DHT22;27615;51.826;5.692;2022-07-06T01:56:19;13.00;85.70
41926;DHT22;27615;51.826;5.692;2022-07-06T01:58:46;13.00;85.80
41926;DHT22;27615;51.826;5.692;2022-07-06T02:01:14;13.00;85.90
41926;DHT22;27615;51.826;5.692;2022-07-06T02:03:40;12.90;86.10
41926;DHT22;27615;51.826;5.692;2022-07-06T02:06:06;12.80;86.40
41926;DHT22;27615;51.826;5.692;2022-07-06T02:08:33;12.80;86.80
41926;DHT22;27615;51.826;5.692;2022-07-06T02:10:59;12.80;87.20
41926;DHT22;27615;51.826;5.692;2022-07-06T02:13:25;12.70;87.50
41926;DHT22;27615;51.826;5.692;2022-07-06T02:15:50;12.70;87.70
41926;DHT22;27615;51.826;5.692;2022-07-06T02:18:16;12.80;88.00
41926;DHT22;27615;51.826;5.692;2022-07-06T02:20:41;12.70;88.00
41926;DHT22;27615;51.826;5.692;2022-07-06T02:23:07;12.70;88.20
41926;DHT22;27615;51.826;5.692;2022-07-06T02:25:33;12.70;88.40
41926;DHT22;27615;51.826;5.692;2022-07-06T02:27:58;12.70;88.50
41926;DHT22;27615;51.826;5.692;2022-07-06T02:30:24;12.70;88.70
41926;DHT22;27615;51.826;5.692;2022-07-06T02:32:49;12.70;88.90
41926;DHT22;27615;51.826;5.692;2022-07-06T02:35:15;12.60;89.20
41926;DHT22;27615;51.826;5.692;2022-07-06T02:37:40;12.60;89.60
41926;DHT22;27615;51.826;5.692;2022-07-06T02:40:07;12.60;89.90
41926;DHT22;27615;51.826;5.692;2022-07-06T02:42:32;12.60;90.10
41926;DHT22;27615;51.826;5.692;2022-07-06T02:44:58;12.50;90.20
41926;DHT22;27615;51.826;5.692;2022-07-06T02:47:23;12.50;90.30
41926;DHT22;27615;51.826;5.692;2022-07-06T02:49:49;12.40;90.60
41926;DHT22;27615;51.826;5.692;2022-07-06T02:52:14;12.40;90.80
41926;DHT22;27615;51.826;5.692;2022-07-06T02:54:40;12.40;91.00
41926;DHT22;27615;51.826;5.692;2022-07-06T02:57:05;12.40;91.30
41926;DHT22;27615;51.826;5.692;2022-07-06T02:59:31;12.30;91.50
41926;DHT22;27615;51.826;5.692;2022-07-06T03:01:56;12.30;91.60
41926;DHT22;27615;51.826;5.692;2022-07-06T03:04:22;12.30;91.70
41926;DHT22;27615;51.826;5.692;2022-07-06T03:06:47;12.30;91.90
41926;DHT22;27615;51.826;5.692;2022-07-06T03:09:13;12.30;92.10
41926;DHT22;27615;51.826;5.692;2022-07-06T03:11:39;12.30;92.20
41926;DHT22;27615;51.826;5.692;2022-07-06T03:14:05;12.30;92.30
41926;DHT22;27615;51.826;5.692;2022-07-06T03:16:30;12.30;92.40
41926;DHT22;27615;51.826;5.692;2022-07-06T03:18:56;12.20;92.40
41926;DHT22;27615;51.826;5.692;2022-07-06T03:21:25;12.20;92.50
41926;DHT22;27615;51.826;5.692;2022-07-06T03:23:51;12.20;92.70
41926;DHT22;27615;51.826;5.692;2022-07-06T03:26:16;12.20;92.80
41926;DHT22;27615;51.826;5.692;2022-07-06T03:28:42;12.20;92.90
41926;DHT22;27615;51.826;5.692;2022-07-06T03:31:07;12.20;92.90
41926;DHT22;27615;51.826;5.692;2022-07-06T03:33:33;12.30;93.00
41926;DHT22;27615;51.826;5.692;2022-07-06T03:35:59;12.30;93.10
41926;DHT22;27615;51.826;5.692;2022-07-06T03:38:24;12.30;93.20
41926;DHT22;27615;51.826;5.692;2022-07-06T03:40:50;12.30;93.20
41926;DHT22;27615;51.826;5.692;2022-07-06T03:43:15;12.30;93.20
41926;DHT22;27615;51.826;5.692;2022-07-06T03:45:41;12.30;93.30
41926;DHT22;27615;51.826;5.692;2022-07-06T03:48:07;12.30;93.40
41926;DHT22;27615;51.826;5.692;2022-07-06T03:50:32;12.40;93.50
41926;DHT22;27615;51.826;5.692;2022-07-06T03:52:58;12.40;93.50
41926;DHT22;27615;51.826;5.692;2022-07-06T03:55:23;12.40;93.60
41926;DHT22;27615;51.826;5.692;2022-07-06T03:57:49;12.40;93.70
41926;DHT22;27615;51.826;5.692;2022-07-06T04:00:14;12.50;93.80
41926;DHT22;27615;51.826;5.692;2022-07-06T04:02:40;12.50;93.90
41926;DHT22;27615;51.826;5.692;2022-07-06T04:05:06;12.50;93.90
41926;DHT22;27615;51.826;5.692;2022-07-06T04:07:32;12.60;94.10
41926;DHT22;27615;51.826;5.692;2022-07-06T04:09:57;12.60;94.20
41926;DHT22;27615;51.826;5.692;2022-07-06T04:12:23;12.60;94.20
41926;DHT22;27615;51.826;5.692;2022-07-06T04:14:49;12.60;94.30
41926;DHT22;27615;51.826;5.692;2022-07-06T04:17:14;12.70;94.50
41926;DHT22;27615;51.826;5.692;2022-07-06T04:19:58;12.70;94.50
41926;DHT22;27615;51.826;5.692;2022-07-06T04:22:24;12.80;94.60
41926;DHT22;27615;51.826;5.692;2022-07-06T04:24:50;12.80;94.70
41926;DHT22;27615;51.826;5.692;2022-07-06T04:27:15;12.80;94.80
41926;DHT22;27615;51.826;5.692;2022-07-06T04:29:41;12.80;94.90
41926;DHT22;27615;51.826;5.692;2022-07-06T04:32:06;12.90;95.00
41926;DHT22;27615;51.826;5.692;2022-07-06T04:34:32;12.90;95.30
41926;DHT22;27615;51.826;5.692;2022-07-06T04:36:58;12.90;95.10
41926;DHT22;27615;51.826;5.692;2022-07-06T04:39:23;13.00;95.20
41926;DHT22;27615;51.826;5.692;2022-07-06T04:41:49;13.00;95.30
41926;DHT22;27615;51.826;5.692;2022-07-06T04:46:53;13.10;95.40
41926;DHT22;27615;51.826;5.692;2022-07-06T04:49:18;13.20;95.50
41926;DHT22;27615;51.826;5.692;2022-07-06T04:51:44;13.20;95.50
41926;DHT22;27615;51.826;5.692;2022-07-06T04:54:09;13.30;95.50
41926;DHT22;27615;51.826;5.692;2022-07-06T04:56:35;13.30;95.60
41926;DHT22;27615;51.826;5.692;2022-07-06T04:59:00;13.40;95.70
41926;DHT22;27615;51.826;5.692;2022-07-06T05:01:26;13.50;95.70
41926;DHT22;27615;51.826;5.692;2022-07-06T05:03:51;13.50;95.80
41926;DHT22;27615;51.826;5.692;2022-07-06T05:06:17;13.60;95.80
41926;DHT22;27615;51.826;5.692;2022-07-06T05:08:43;13.70;95.90
41926;DHT22;27615;51.826;5.692;2022-07-06T05:11:09;13.70;96.00
41926;DHT22;27615;51.826;5.692;2022-07-06T05:13:34;13.80;96.00
41926;DHT22;27615;51.826;5.692;2022-07-06T05:16:00;13.90;96.10
41926;DHT22;27615;51.826;5.692;2022-07-06T05:18:25;14.00;96.10
41926;DHT22;27615;51.826;5.692;2022-07-06T05:20:51;14.00;96.20
41926;DHT22;27615;51.826;5.692;2022-07-06T05:23:16;14.10;96.30
41926;DHT22;27615;51.826;5.692;2022-07-06T05:25:42;14.20;96.30
41926;DHT22;27615;51.826;5.692;2022-07-06T05:28:25;14.20;96.30
41926;DHT22;27615;51.826;5.692;2022-07-06T05:30:51;14.30;96.20
41926;DHT22;27615;51.826;5.692;2022-07-06T05:33:17;14.30;96.20
41926;DHT22;27615;51.826;5.692;2022-07-06T05:35:42;14.30;96.30
41926;DHT22;27615;51.826;5.692;2022-07-06T05:38:08;14.40;96.40
41926;DHT22;27615;51.826;5.692;2022-07-06T05:40:50;14.40;96.30
41926;DHT22;27615;51.826;5.692;2022-07-06T05:43:18;14.50;96.20
41926;DHT22;27615;51.826;5.692;2022-07-06T05:45:47;14.50;96.20
41926;DHT22;27615;51.826;5.692;2022-07-06T05:48:13;14.50;96.10
41926;DHT22;27615;51.826;5.692;2022-07-06T05:50:57;14.60;96.00
41926;DHT22;27615;51.826;5.692;2022-07-06T05:53:22;14.60;95.90
41926;DHT22;27615;51.826;5.692;2022-07-06T05:55:48;14.60;95.80
41926;DHT22;27615;51.826;5.692;2022-07-06T05:58:14;14.70;95.70
41926;DHT22;27615;51.826;5.692;2022-07-06T06:00:39;14.80;95.60
41926;DHT22;27615;51.826;5.692;2022-07-06T06:03:05;14.80;95.50
41926;DHT22;27615;51.826;5.692;2022-07-06T06:05:30;14.90;95.50
41926;DHT22;27615;51.826;5.692;2022-07-06T06:07:56;15.00;95.50
41926;DHT22;27615;51.826;5.692;2022-07-06T06:10:22;15.20;95.40
41926;DHT22;27615;51.826;5.692;2022-07-06T06:12:47;15.30;95.20
41926;DHT22;27615;51.826;5.692;2022-07-06T06:15:13;15.40;95.00
41926;DHT22;27615;51.826;5.692;2022-07-06T06:17:39;15.50;94.60
41926;DHT22;27615;51.826;5.692;2022-07-06T06:20:07;15.60;94.30
41926;DHT22;27615;51.826;5.692;2022-07-06T06:22:50;15.70;94.00
41926;DHT22;27615;51.826;5.692;2022-07-06T06:25:18;15.80;93.70
41926;DHT22;27615;51.826;5.692;2022-07-06T06:27:43;15.90;93.70
41926;DHT22;27615;51.826;5.692;2022-07-06T06:30:09;15.90;93.60
41926;DHT22;27615;51.826;5.692;2022-07-06T06:32:35;16.00;93.40
41926;DHT22;27615;51.826;5.692;2022-07-06T06:35:01;16.10;93.40
41926;DHT22;27615;51.826;5.692;2022-07-06T06:37:30;16.20;93.30
41926;DHT22;27615;51.826;5.692;2022-07-06T06:39:55;16.20;93.10
41926;DHT22;27615;51.826;5.692;2022-07-06T06:42:21;16.20;93.00
41926;DHT22;27615;51.826;5.692;2022-07-06T06:44:49;16.20;93.00
41926;DHT22;27615;51.826;5.692;2022-07-06T06:47:14;16.20;92.90
41926;DHT22;27615;51.826;5.692;2022-07-06T06:49:40;16.20;92.80
41926;DHT22;27615;51.826;5.692;2022-07-06T06:52:13;16.30;92.80
41926;DHT22;27615;51.826;5.692;2022-07-06T06:54:39;16.40;92.70
41926;DHT22;27615;51.826;5.692;2022-07-06T06:57:04;16.30;92.60
41926;DHT22;27615;51.826;5.692;2022-07-06T07:02:36;16.40;92.40
41926;DHT22;27615;51.826;5.692;2022-07-06T07:05:52;16.40;92.20
41926;DHT22;27615;51.826;5.692;2022-07-06T07:08:17;16.50;91.90
41926;DHT22;27615;51.826;5.692;2022-07-06T07:10:43;16.50;92.00
41926;DHT22;27615;51.826;5.692;2022-07-06T07:13:08;16.50;91.80
41926;DHT22;27615;51.826;5.692;2022-07-06T07:15:34;16.60;91.70
41926;DHT22;27615;51.826;5.692;2022-07-06T07:17:59;16.70;91.50
41926;DHT22;27615;51.826;5.692;2022-07-06T07:20:25;16.70;91.40
41926;DHT22;27615;51.826;5.692;2022-07-06T07:22:51;16.80;91.10
41926;DHT22;27615;51.826;5.692;2022-07-06T07:25:16;16.90;90.80
41926;DHT22;27615;51.826;5.692;2022-07-06T07:27:42;17.00;90.60
41926;DHT22;27615;51.826;5.692;2022-07-06T07:30:08;17.00;90.30
41926;DHT22;27615;51.826;5.692;2022-07-06T07:32:33;17.10;90.00
41926;DHT22;27615;51.826;5.692;2022-07-06T07:34:59;17.10;89.30
41926;DHT22;27615;51.826;5.692;2022-07-06T07:37:24;17.20;89.10
41926;DHT22;27615;51.826;5.692;2022-07-06T07:39:50;17.20;89.00
41926;DHT22;27615;51.826;5.692;2022-07-06T07:42:15;17.30;88.90
41926;DHT22;27615;51.826;5.692;2022-07-06T07:44:41;17.40;88.50
41926;DHT22;27615;51.826;5.692;2022-07-06T07:47:07;17.50;88.40
41926;DHT22;27615;51.826;5.692;2022-07-06T07:49:32;17.60;88.10
41926;DHT22;27615;51.826;5.692;2022-07-06T07:51:58;17.70;87.30
41926;DHT22;27615;51.826;5.692;2022-07-06T07:54:23;17.80;86.50
41926;DHT22;27615;51.826;5.692;2022-07-06T07:56:49;17.90;86.00
41926;DHT22;27615;51.826;5.692;2022-07-06T07:59:14;18.00;85.50
41926;DHT22;27615;51.826;5.692;2022-07-06T08:01:40;18.10;85.30
41926;DHT22;27615;51.826;5.692;2022-07-06T08:04:06;18.10;85.00
41926;DHT22;27615;51.826;5.692;2022-07-06T08:06:32;18.20;85.20
41926;DHT22;27615;51.826;5.692;2022-07-06T08:08:57;18.20;84.00
41926;DHT22;27615;51.826;5.692;2022-07-06T08:11:23;18.20;83.60
41926;DHT22;27615;51.826;5.692;2022-07-06T08:13:49;18.20;83.40
41926;DHT22;27615;51.826;5.692;2022-07-06T08:16:14;18.30;82.90
41926;DHT22;27615;51.826;5.692;2022-07-06T08:18:40;18.40;82.60
41926;DHT22;27615;51.826;5.692;2022-07-06T08:21:06;18.50;82.10
41926;DHT22;27615;51.826;5.692;2022-07-06T08:23:32;18.50;81.60
41926;DHT22;27615;51.826;5.692;2022-07-06T08:26:00;18.50;79.90
41926;DHT22;27615;51.826;5.692;2022-07-06T08:28:26;18.50;79.80
41926;DHT22;27615;51.826;5.692;2022-07-06T08:30:51;18.50;80.10
41926;DHT22;27615;51.826;5.692;2022-07-06T08:33:19;18.60;80.10
41926;DHT22;27615;51.826;5.692;2022-07-06T08:35:45;18.70;79.50
41926;DHT22;27615;51.826;5.692;2022-07-06T08:38:10;18.80;78.50
41926;DHT22;27615;51.826;5.692;2022-07-06T08:40:38;18.90;78.50
41926;DHT22;27615;51.826;5.692;2022-07-06T08:43:05;18.90;77.00
41926;DHT22;27615;51.826;5.692;2022-07-06T08:45:34;19.00;76.50
41926;DHT22;27615;51.826;5.692;2022-07-06T08:48:05;19.10;76.10
41926;DHT22;27615;51.826;5.692;2022-07-06T08:50:50;19.20;75.00
41926;DHT22;27615;51.826;5.692;2022-07-06T08:53:17;19.30;74.70
41926;DHT22;27615;51.826;5.692;2022-07-06T08:55:42;19.40;74.10
41926;DHT22;27615;51.826;5.692;2022-07-06T08:58:09;19.40;74.60
41926;DHT22;27615;51.826;5.692;2022-07-06T09:00:35;19.50;74.00
41926;DHT22;27615;51.826;5.692;2022-07-06T09:03:01;19.60;73.20
41926;DHT22;27615;51.826;5.692;2022-07-06T09:05:28;19.70;72.90
41926;DHT22;27615;51.826;5.692;2022-07-06T09:07:55;19.70;72.60
41926;DHT22;27615;51.826;5.692;2022-07-06T09:13:30;19.80;72.20
41926;DHT22;27615;51.826;5.692;2022-07-06T09:15:55;20.00;71.70
41926;DHT22;27615;51.826;5.692;2022-07-06T09:18:24;20.10;70.90
41926;DHT22;27615;51.826;5.692;2022-07-06T09:20:49;20.30;70.40
41926;DHT22;27615;51.826;5.692;2022-07-06T09:23:16;20.40;68.90
41926;DHT22;27615;51.826;5.692;2022-07-06T09:25:42;20.40;69.10
41926;DHT22;27615;51.826;5.692;2022-07-06T09:28:12;20.40;68.60
41926;DHT22;27615;51.826;5.692;2022-07-06T09:30:37;20.50;68.50
41926;DHT22;27615;51.826;5.692;2022-07-06T09:33:08;20.70;68.40
41926;DHT22;27615;51.826;5.692;2022-07-06T09:35:40;20.80;68.30
41926;DHT22;27615;51.826;5.692;2022-07-06T09:38:10;21.00;67.30
41926;DHT22;27615;51.826;5.692;2022-07-06T09:40:43;21.10;65.90
41926;DHT22;27615;51.826;5.692;2022-07-06T09:45:38;21.40;65.40
41926;DHT22;27615;51.826;5.692;2022-07-06T09:48:09;21.50;64.60
41926;DHT22;27615;51.826;5.692;2022-07-06T09:51:00;21.50;63.40
41926;DHT22;27615;51.826;5.692;2022-07-06T09:53:25;21.60;64.40
41926;DHT22;27615;51.826;5.692;2022-07-06T09:55:53;21.70;63.70
41926;DHT22;27615;51.826;5.692;2022-07-06T09:58:20;21.80;63.30
41926;DHT22;27615;51.826;5.692;2022-07-06T10:00:47;22.00;63.10
41926;DHT22;27615;51.826;5.692;2022-07-06T10:03:14;22.10;61.80
41926;DHT22;27615;51.826;5.692;2022-07-06T10:05:42;22.20;61.50
41926;DHT22;27615;51.826;5.692;2022-07-06T10:08:09;22.30;61.50
41926;DHT22;27615;51.826;5.692;2022-07-06T10:10:37;22.30;61.40
41926;DHT22;27615;51.826;5.692;2022-07-06T10:13:03;22.30;61.30
41926;DHT22;27615;51.826;5.692;2022-07-06T10:15:32;22.40;61.10
41926;DHT22;27615;51.826;5.692;2022-07-06T10:17:59;22.50;60.30
41926;DHT22;27615;51.826;5.692;2022-07-06T10:20:28;22.60;59.60
41926;DHT22;27615;51.826;5.692;2022-07-06T10:22:54;22.70;59.50
41926;DHT22;27615;51.826;5.692;2022-07-06T10:25:23;22.90;59.30
41926;DHT22;27615;51.826;5.692;2022-07-06T10:27:51;23.00;58.70
41926;DHT22;27615;51.826;5.692;2022-07-06T10:33:33;23.10;58.60
41926;DHT22;27615;51.826;5.692;2022-07-06T10:35:58;23.10;58.40
41926;DHT22;27615;51.826;5.692;2022-07-06T10:38:31;23.10;58.30
41926;DHT22;27615;51.826;5.692;2022-07-06T10:41:06;23.20;57.90
41926;DHT22;27615;51.826;5.692;2022-07-06T10:46:04;23.50;56.50
41926;DHT22;27615;51.826;5.692;2022-07-06T10:48:40;23.50;56.00
41926;DHT22;27615;51.826;5.692;2022-07-06T10:51:07;23.60;55.70
41926;DHT22;27615;51.826;5.692;2022-07-06T10:53:35;23.50;55.60
41926;DHT22;27615;51.826;5.692;2022-07-06T10:56:08;23.50;55.30
41926;DHT22;27615;51.826;5.692;2022-07-06T11:01:27;23.70;55.60
41926;DHT22;27615;51.826;5.692;2022-07-06T11:06:24;23.80;54.80
41926;DHT22;27615;51.826;5.692;2022-07-06T11:08:57;23.70;55.10
41926;DHT22;27615;51.826;5.692;2022-07-06T11:14:01;24.00;55.10
41926;DHT22;27615;51.826;5.692;2022-07-06T11:16:30;24.00;54.90
41926;DHT22;27615;51.826;5.692;2022-07-06T11:19:21;24.10;55.00
41926;DHT22;27615;51.826;5.692;2022-07-06T11:24:28;24.00;53.80
41926;DHT22;27615;51.826;5.692;2022-07-06T11:26:56;24.20;53.70
41926;DHT22;27615;51.826;5.692;2022-07-06T11:29:33;24.40;53.40
41926;DHT22;27615;51.826;5.692;2022-07-06T11:32:05;24.50;53.20
41926;DHT22;27615;51.826;5.692;2022-07-06T11:34:35;24.50;52.90
41926;DHT22;27615;51.826;5.692;2022-07-06T11:37:07;24.60;52.70
41926;DHT22;27615;51.826;5.692;2022-07-06T11:39:35;24.70;52.50
41926;DHT22;27615;51.826;5.692;2022-07-06T11:42:02;24.80;52.60
41926;DHT22;27615;51.826;5.692;2022-07-06T11:44:29;24.80;52.60
41926;DHT22;27615;51.826;5.692;2022-07-06T11:46:55;24.80;52.60
41926;DHT22;27615;51.826;5.692;2022-07-06T11:49:27;24.90;52.20
41926;DHT22;27615;51.826;5.692;2022-07-06T11:52:16;24.90;52.20
41926;DHT22;27615;51.826;5.692;2022-07-06T11:54:57;24.90;52.00
41926;DHT22;27615;51.826;5.692;2022-07-06T11:57:22;24.80;52.30
41926;DHT22;27615;51.826;5.692;2022-07-06T11:59:49;24.70;51.60
41926;DHT22;27615;51.826;5.692;2022-07-06T12:02:16;24.60;50.90
41926;DHT22;27615;51.826;5.692;2022-07-06T12:04:44;24.40;50.60
41926;DHT22;27615;51.826;5.692;2022-07-06T12:07:17;24.30;51.20
41926;DHT22;27615;51.826;5.692;2022-07-06T12:12:35;24.30;51.30
41926;DHT22;27615;51.826;5.692;2022-07-06T12:15:00;24.20;51.70
41926;DHT22;27615;51.826;5.692;2022-07-06T12:17:26;24.30;51.20
41926;DHT22;27615;51.826;5.692;2022-07-06T12:19:55;24.10;51.00
41926;DHT22;27615;51.826;5.692;2022-07-06T12:22:26;24.20;51.70
41926;DHT22;27615;51.826;5.692;2022-07-06T12:25:28;24.40;51.70
41926;DHT22;27615;51.826;5.692;2022-07-06T12:27:54;24.80;51.60
41926;DHT22;27615;51.826;5.692;2022-07-06T12:30:19;25.10;51.20
41926;DHT22;27615;51.826;5.692;2022-07-06T12:32:45;25.10;50.20
41926;DHT22;27615;51.826;5.692;2022-07-06T12:35:10;25.10;50.50
41926;DHT22;27615;51.826;5.692;2022-07-06T12:37:37;25.40;50.90
41926;DHT22;27615;51.826;5.692;2022-07-06T12:40:11;25.30;50.10
41926;DHT22;27615;51.826;5.692;2022-07-06T12:42:46;25.10;49.60
41926;DHT22;27615;51.826;5.692;2022-07-06T12:45:12;25.20;50.10
41926;DHT22;27615;51.826;5.692;2022-07-06T12:48:04;25.30;49.80
41926;DHT22;27615;51.826;5.692;2022-07-06T12:50:49;25.60;49.60
41926;DHT22;27615;51.826;5.692;2022-07-06T12:53:26;25.60;49.80
41926;DHT22;27615;51.826;5.692;2022-07-06T12:56:11;25.80;49.50
41926;DHT22;27615;51.826;5.692;2022-07-06T12:58:37;26.00;49.20
41926;DHT22;27615;51.826;5.692;2022-07-06T13:01:02;26.10;48.50
41926;DHT22;27615;51.826;5.692;2022-07-06T13:03:38;26.30;48.50
41926;DHT22;27615;51.826;5.692;2022-07-06T13:06:05;26.40;47.90
41926;DHT22;27615;51.826;5.692;2022-07-06T13:08:30;26.50;47.70
41926;DHT22;27615;51.826;5.692;2022-07-06T13:11:07;26.50;47.50
41926;DHT22;27615;51.826;5.692;2022-07-06T13:13:43;26.50;47.30
41926;DHT22;27615;51.826;5.692;2022-07-06T13:16:08;26.60;47.40
41926;DHT22;27615;51.826;5.692;2022-07-06T13:18:34;26.60;47.60
41926;DHT22;27615;51.826;5.692;2022-07-06T13:20:59;26.70;46.90
41926;DHT22;27615;51.826;5.692;2022-07-06T13:23:25;26.80;46.90
41926;DHT22;27615;51.826;5.692;2022-07-06T13:25:53;26.80;46.40
41926;DHT22;27615;51.826;5.692;2022-07-06T13:28:24;26.80;46.40
41926;DHT22;27615;51.826;5.692;2022-07-06T13:30:50;26.80;46.40
41926;DHT22;27615;51.826;5.692;2022-07-06T13:33:15;26.80;46.40
41926;DHT22;27615;51.826;5.692;2022-07-06T13:35:41;27.00;46.50
41926;DHT22;27615;51.826;5.692;2022-07-06T13:38:06;27.10;46.30
41926;DHT22;27615;51.826;5.692;2022-07-06T13:40:32;27.20;45.90
41926;DHT22;27615;51.826;5.692;2022-07-06T13:42:59;27.20;46.00
41926;DHT22;27615;51.826;5.692;2022-07-06T13:45:25;27.20;45.80
41926;DHT22;27615;51.826;5.692;2022-07-06T13:47:56;27.30;45.60
41926;DHT22;27615;51.826;5.692;2022-07-06T13:50:24;27.30;45.60
41926;DHT22;27615;51.826;5.692;2022-07-06T13:52:50;27.20;45.70
41926;DHT22;27615;51.826;5.692;2022-07-06T13:55:23;27.30;45.60
41926;DHT22;27615;51.826;5.692;2022-07-06T13:57:52;27.50;45.20
41926;DHT22;27615;51.826;5.692;2022-07-06T14:00:18;27.70;45.10
41926;DHT22;27615;51.826;5.692;2022-07-06T14:02:44;27.80;44.70
41926;DHT22;27615;51.826;5.692;2022-07-06T14:05:10;27.80;44.40
41926;DHT22;27615;51.826;5.692;2022-07-06T14:07:36;27.60;44.70
41926;DHT22;27615;51.826;5.692;2022-07-06T14:10:02;27.80;44.30
41926;DHT22;27615;51.826;5.692;2022-07-06T14:12:28;27.80;44.00
41926;DHT22;27615;51.826;5.692;2022-07-06T14:14:54;27.80;43.70
41926;DHT22;27615;51.826;5.692;2022-07-06T14:17:19;27.90;43.70
41926;DHT22;27615;51.826;5.692;2022-07-06T14:19:45;28.00;43.80
41926;DHT22;27615;51.826;5.692;2022-07-06T14:22:10;28.00;43.50
41926;DHT22;27615;51.826;5.692;2022-07-06T14:24:36;28.10;43.60
41926;DHT22;27615;51.826;5.692;2022-07-06T14:27:01;28.10;43.60
41926;DHT22;27615;51.826;5.692;2022-07-06T14:29:27;28.20;43.70
41926;DHT22;27615;51.826;5.692;2022-07-06T14:31:53;28.20;43.50
41926;DHT22;27615;51.826;5.692;2022-07-06T14:34:18;28.10;43.50
41926;DHT22;27615;51.826;5.692;2022-07-06T14:36:44;28.10;44.10
41926;DHT22;27615;51.826;5.692;2022-07-06T14:39:10;28.20;44.10
41926;DHT22;27615;51.826;5.692;2022-07-06T14:41:38;28.20;43.70
41926;DHT22;27615;51.826;5.692;2022-07-06T14:44:04;28.30;43.90
41926;DHT22;27615;51.826;5.692;2022-07-06T14:46:30;28.30;43.70
41926;DHT22;27615;51.826;5.692;2022-07-06T14:48:55;28.40;44.00
41926;DHT22;27615;51.826;5.692;2022-07-06T14:51:21;28.50;44.20
41926;DHT22;27615;51.826;5.692;2022-07-06T14:53:47;28.50;44.20
41926;DHT22;27615;51.826;5.692;2022-07-06T14:56:12;28.50;44.00
41926;DHT22;27615;51.826;5.692;2022-07-06T14:58:38;28.40;44.00
41926;DHT22;27615;51.826;5.692;2022-07-06T15:01:03;28.40;44.10
41926;DHT22;27615;51.826;5.692;2022-07-06T15:03:29;28.40;44.10
41926;DHT22;27615;51.826;5.692;2022-07-06T15:05:54;28.20;44.00
41926;DHT22;27615;51.826;5.692;2022-07-06T15:08:20;28.10;44.30
41926;DHT22;27615;51.826;5.692;2022-07-06T15:10:52;28.00;44.70
41926;DHT22;27615;51.826;5.692;2022-07-06T15:13:17;28.00;44.80
41926;DHT22;27615;51.826;5.692;2022-07-06T15:15:43;27.90;45.00
41926;DHT22;27615;51.826;5.692;2022-07-06T15:18:09;27.80;45.00
41926;DHT22;27615;51.826;5.692;2022-07-06T15:20:34;27.80;45.20
41926;DHT22;27615;51.826;5.692;2022-07-06T15:23:00;27.80;45.50
41926;DHT22;27615;51.826;5.692;2022-07-06T15:25:26;27.70;45.40
41926;DHT22;27615;51.826;5.692;2022-07-06T15:27:52;27.60;45.80
41926;DHT22;27615;51.826;5.692;2022-07-06T15:30:18;27.50;46.10
41926;DHT22;27615;51.826;5.692;2022-07-06T15:32:43;27.40;46.30
41926;DHT22;27615;51.826;5.692;2022-07-06T15:35:09;27.30;46.20
41926;DHT22;27615;51.826;5.692;2022-07-06T15:37:35;27.20;45.90
41926;DHT22;27615;51.826;5.692;2022-07-06T15:40:02;27.10;46.10
41926;DHT22;27615;51.826;5.692;2022-07-06T15:42:28;27.00;46.30
41926;DHT22;27615;51.826;5.692;2022-07-06T15:44:54;26.90;46.50
41926;DHT22;27615;51.826;5.692;2022-07-06T15:47:20;26.90;46.80
41926;DHT22;27615;51.826;5.692;2022-07-06T15:49:48;26.90;47.10
41926;DHT22;27615;51.826;5.692;2022-07-06T15:52:14;26.70;47.30
41926;DHT22;27615;51.826;5.692;2022-07-06T15:54:41;26.60;47.60
41926;DHT22;27615;51.826;5.692;2022-07-06T15:57:06;26.50;47.60
41926;DHT22;27615;51.826;5.692;2022-07-06T15:59:32;26.30;47.50
41926;DHT22;27615;51.826;5.692;2022-07-06T16:01:58;26.10;47.70